Time;durP1;ratioP1;P1;durP2;ratioP2;P2;SDS_P1;SDS_P2;PMS_P1;PMS_P2;Temp;Humidity;BMP_temperature;BMP_pressure;BME280_temperature;BME280_humidity;BME280_pressure;Samples;Min_cycle;Max_cycle;Signal;HPM_P1;HPM_P2
2022/08/17 00:00:59;;;;;;;53.00;36.47;;;19.70;99.90;;;;;;4958012;29;20094;-89
2022/08/17 00:03:32;;;;;;;50.78;36.33;;;19.80;99.90;;;;;;4940316;29;20043;-90
2022/08/17 00:06:05;;;;;;;50.92;35.95;;;19.70;99.90;;;;;;4958869;29;20047;-89
2022/08/17 00:08:39;;;;;;;51.38;36.97;;;19.60;99.90;;;;;;4940690;29;20120;-90
2022/08/17 00:11:13;;;;;;;55.30;37.60;;;19.80;99.90;;;;;;4940003;29;20055;-90
2022/08/17 00:13:47;;;;;;;47.97;36.70;;;19.60;99.90;;;;;;4973916;28;20053;-90
2022/08/17 00:16:21;;;;;;;51.88;35.70;;;19.60;99.90;;;;;;4940677;29;20435;-90
2022/08/17 00:18:48;;;;;;;48.72;36.33;;;19.50;99.90;;;;;;4958067;29;20043;-89
2022/08/17 00:21:15;;;;;;;49.22;36.72;;;19.60;99.90;;;;;;4958001;29;20053;-90
2022/08/17 00:23:42;;;;;;;52.83;36.90;;;19.50;99.90;;;;;;4973026;28;20526;-90
2022/08/17 00:26:08;;;;;;;51.53;37.33;;;19.50;99.90;;;;;;4971748;28;20047;-90
2022/08/17 00:28:34;;;;;;;52.30;35.88;;;19.40;99.90;;;;;;4940367;29;20039;-90
2022/08/17 00:31:00;;;;;;;53.47;37.20;;;19.40;99.90;;;;;;4939987;29;20410;-90
2022/08/17 00:33:29;;;;;;;52.22;36.83;;;19.50;99.90;;;;;;4939727;29;20071;-89
2022/08/17 00:35:55;;;;;;;54.72;38.53;;;19.50;99.90;;;;;;4959083;29;20098;-90
2022/08/17 00:38:22;;;;;;;51.95;37.08;;;19.20;99.90;;;;;;4947447;28;20034;-91
2022/08/17 00:40:51;;;;;;;52.50;37.80;;;19.30;99.90;;;;;;4972940;29;20047;-90
2022/08/17 00:43:21;;;;;;;49.50;35.10;;;19.70;99.90;;;;;;4941022;29;20069;-90
2022/08/17 00:45:48;;;;;;;54.42;36.65;;;19.30;99.90;;;;;;4972417;28;20512;-90
2022/08/17 00:48:13;;;;;;;52.97;36.55;;;19.30;99.90;;;;;;4974997;28;20023;-90
2022/08/17 00:51:00;;;;;;;49.20;36.10;;;19.30;99.90;;;;;;4965202;29;20035;-90
2022/08/17 00:53:29;;;;;;;50.15;34.17;;;19.20;99.90;;;;;;4981593;28;20039;-90
2022/08/17 00:56:00;;;;;;;52.63;36.13;;;19.40;99.90;;;;;;4981301;28;20051;-90
2022/08/17 00:58:26;;;;;;;50.20;34.03;;;19.20;99.90;;;;;;4949473;29;20042;-90
2022/08/17 01:00:51;;;;;;;49.50;36.47;;;19.20;99.90;;;;;;4943863;29;20457;-90
2022/08/17 01:03:24;;;;;;;46.95;35.28;;;19.20;99.90;;;;;;4957154;29;20039;-89
2022/08/17 01:05:52;;;;;;;46.42;31.55;;;19.70;99.90;;;;;;4939762;29;20059;-89
2022/08/17 01:08:23;;;;;;;47.67;34.78;;;19.10;99.90;;;;;;4938994;29;20106;-90
2022/08/17 01:10:52;;;;;;;50.65;35.65;;;19.10;99.90;;;;;;4958229;29;20055;-90
2022/08/17 01:13:19;;;;;;;46.67;33.83;;;19.10;99.90;;;;;;4958762;29;20035;-90
2022/08/17 01:15:53;;;;;;;45.65;34.00;;;19.20;99.90;;;;;;4939361;29;20510;-90
2022/08/17 01:18:19;;;;;;;50.42;34.80;;;19.00;99.90;;;;;;4939068;29;20061;-90
2022/08/17 01:20:52;;;;;;;49.08;35.60;;;18.90;99.90;;;;;;4956737;29;20122;-90
2022/08/17 01:23:22;;;;;;;46.40;34.05;;;18.90;99.90;;;;;;4955934;29;20069;-89
2022/08/17 01:25:54;;;;;;;47.20;33.78;;;19.20;99.90;;;;;;4939223;29;20058;-89
2022/08/17 01:28:23;;;;;;;47.10;33.78;;;18.90;99.90;;;;;;4938328;29;20066;-89
2022/08/17 01:30:52;;;;;;;50.28;35.45;;;18.80;99.90;;;;;;4971407;28;20138;-90
2022/08/17 01:33:17;;;;;;;47.38;34.45;;;18.80;99.90;;;;;;4970634;28;20054;-89
2022/08/17 01:35:43;;;;;;;49.47;35.60;;;18.70;99.90;;;;;;4938535;29;20391;-90
2022/08/17 01:38:08;;;;;;;50.13;36.15;;;18.70;99.90;;;;;;4939405;29;20057;-90
2022/08/17 01:40:37;;;;;;;48.58;36.63;;;18.70;99.90;;;;;;4938816;29;20047;-90
2022/08/17 01:43:10;;;;;;;48.30;35.35;;;18.60;99.90;;;;;;4938428;29;20071;-89
2022/08/17 01:45:43;;;;;;;48.95;35.80;;;18.60;99.90;;;;;;4970533;28;20498;-89
2022/08/17 01:48:10;;;;;;;45.38;35.33;;;18.60;99.90;;;;;;4938850;29;20054;-90
2022/08/17 01:50:38;;;;;;;46.75;34.30;;;18.80;99.90;;;;;;4954464;28;20063;-90
2022/08/17 01:53:25;;;;;;;49.95;34.92;;;18.60;99.90;;;;;;4956168;29;20114;-90
2022/08/17 01:55:55;;;;;;;46.85;34.65;;;18.50;99.90;;;;;;4956563;28;20495;-90
2022/08/17 01:58:21;;;;;;;48.72;36.00;;;18.50;99.90;;;;;;4956213;29;20058;-90
2022/08/17 02:00:50;;;;;;;49.03;35.60;;;18.50;99.90;;;;;;4938620;29;20055;-90
2022/08/17 02:03:17;;;;;;;52.75;37.22;;;18.50;99.90;;;;;;4936997;29;20047;-89
2022/08/17 02:05:43;;;;;;;48.67;36.20;;;18.50;99.90;;;;;;4937876;29;20074;-89
2022/08/17 02:08:09;;;;;;;51.33;36.20;;;18.80;99.90;;;;;;4971727;28;20078;-90
2022/08/17 02:10:34;;;;;;;47.17;35.13;;;18.70;99.90;;;;;;4937620;29;20059;-89
2022/08/17 02:13:02;;;;;;;45.38;34.58;;;18.50;99.90;;;;;;4939030;29;20062;-90
2022/08/17 02:15:28;;;;;;;45.08;32.90;;;18.50;99.90;;;;;;4952004;29;20027;-89
2022/08/17 02:17:53;;;;;;;47.63;35.10;;;18.50;99.90;;;;;;4950577;29;20176;-90
2022/08/17 02:20:19;;;;;;;43.95;33.42;;;18.40;99.90;;;;;;4940201;29;20055;-89
2022/08/17 02:22:46;;;;;;;45.08;34.20;;;18.40;99.90;;;;;;4955910;29;20043;-90
2022/08/17 02:25:15;;;;;;;45.30;33.90;;;18.50;99.90;;;;;;4954863;29;20047;-90
2022/08/17 02:27:41;;;;;;;47.35;34.45;;;18.50;99.90;;;;;;4955998;29;20126;-90
2022/08/17 02:30:09;;;;;;;46.95;33.97;;;18.90;99.90;;;;;;4955587;29;20040;-90
2022/08/17 02:32:35;;;;;;;47.92;35.97;;;18.40;99.90;;;;;;4937281;29;20055;-90
2022/08/17 02:35:01;;;;;;;47.00;33.33;;;18.50;99.90;;;;;;4938081;29;20383;-90
2022/08/17 02:37:28;;;;;;;45.20;33.20;;;18.40;99.90;;;;;;4938260;29;20043;-90
2022/08/17 02:39:55;;;;;;;45.00;34.88;;;18.40;99.90;;;;;;4938054;29;20055;-90
2022/08/17 02:42:35;;;;;;;45.60;33.45;;;18.30;99.90;;;;;;4956040;29;20070;-90
2022/08/17 02:45:03;;;;;;;48.38;34.10;;;18.40;99.90;;;;;;4973549;29;20055;-89
2022/08/17 02:47:28;;;;;;;45.47;33.20;;;18.40;99.90;;;;;;4953889;29;20054;-89
2022/08/17 02:49:54;;;;;;;47.72;32.45;;;18.40;99.90;;;;;;4952036;29;20091;-89
2022/08/17 02:52:20;;;;;;;45.45;33.30;;;18.40;99.90;;;;;;4959294;29;20047;-90
2022/08/17 02:54:46;;;;;;;47.75;33.63;;;18.70;99.90;;;;;;4937720;29;20588;-90
2022/08/17 02:57:12;;;;;;;49.53;34.10;;;18.40;99.90;;;;;;4955100;29;20615;-90
2022/08/17 02:59:38;;;;;;;47.42;34.17;;;18.40;99.90;;;;;;4936858;29;20068;-90
2022/08/17 03:02:10;;;;;;;49.00;34.00;;;18.60;99.90;;;;;;4959582;28;20043;-91
2022/08/17 03:04:36;;;;;;;48.35;33.78;;;18.50;99.90;;;;;;4974494;28;20055;-90
2022/08/17 03:07:03;;;;;;;46.78;33.20;;;18.50;99.90;;;;;;4958613;29;20043;-90
2022/08/17 03:09:29;;;;;;;49.33;35.50;;;18.40;99.90;;;;;;4941771;29;20089;-90
2022/08/17 03:12:02;;;;;;;48.35;34.60;;;18.80;99.90;;;;;;4941649;29;20083;-90
2022/08/17 03:14:27;;;;;;;46.58;34.17;;;18.50;99.90;;;;;;4973375;28;20047;-90
2022/08/17 03:16:53;;;;;;;45.83;33.90;;;18.40;99.90;;;;;;4941413;29;20557;-90
2022/08/17 03:19:18;;;;;;;45.42;32.90;;;18.40;99.90;;;;;;4958716;29;20398;-90
2022/08/17 03:21:44;;;;;;;48.30;34.63;;;19.00;99.90;;;;;;4940873;29;20050;-90
2022/08/17 03:24:09;;;;;;;45.20;33.22;;;18.40;99.90;;;;;;4941510;29;20099;-90
2022/08/17 03:26:35;;;;;;;43.97;33.53;;;18.90;99.90;;;;;;4958577;29;20382;-90
2022/08/17 03:29:01;;;;;;;44.90;34.25;;;18.40;99.90;;;;;;4957738;29;20138;-90
2022/08/17 03:31:26;;;;;;;45.60;33.90;;;18.40;99.90;;;;;;4940963;29;20055;-90
2022/08/17 03:33:52;;;;;;;49.22;34.40;;;18.30;99.90;;;;;;4965736;28;20067;-89
2022/08/17 03:36:17;;;;;;;49.05;34.45;;;18.40;99.90;;;;;;4965857;29;20035;-90
2022/08/17 03:38:43;;;;;;;48.20;34.45;;;18.40;99.90;;;;;;4966844;29;20030;-89
2022/08/17 03:41:09;;;;;;;47.58;34.20;;;18.50;99.90;;;;;;4966409;28;20403;-90
2022/08/17 03:43:34;;;;;;;48.88;35.35;;;18.50;99.90;;;;;;4958136;29;20043;-90
2022/08/17 03:57:09;;;;;;;49.95;36.47;;;18.70;99.90;;;;;;4941737;29;19922;-90
2022/08/17 03:59:36;;;;;;;52.58;36.15;;;18.50;99.90;;;;;;4972814;28;20087;-90
2022/08/17 04:02:29;;;;;;;50.83;36.30;;;18.50;99.90;;;;;;4949180;28;20411;-90
2022/08/17 04:04:55;;;;;;;55.63;36.72;;;18.50;99.90;;;;;;4958810;28;20700;-90
2022/08/17 04:07:24;;;;;;;55.30;36.38;;;18.50;99.90;;;;;;4959459;28;20042;-90
2022/08/17 04:09:50;;;;;;;51.63;36.45;;;18.50;99.90;;;;;;4959150;28;20054;-90
2022/08/17 04:12:18;;;;;;;51.60;35.97;;;18.50;99.90;;;;;;4977024;28;20387;-91
2022/08/17 04:14:43;;;;;;;52.20;35.40;;;19.10;99.90;;;;;;4959109;28;20054;-91
2022/08/17 04:17:09;;;;;;;51.83;35.45;;;18.50;99.90;;;;;;4958989;28;20043;-91
2022/08/17 04:19:35;;;;;;;54.50;35.22;;;18.50;99.90;;;;;;4959286;28;20137;-90
2022/08/17 04:22:01;;;;;;;54.58;35.35;;;18.60;99.90;;;;;;4976981;28;20518;-90
2022/08/17 04:24:26;;;;;;;53.42;34.40;;;18.50;99.90;;;;;;4975781;28;20039;-90
2022/08/17 04:26:52;;;;;;;52.40;35.83;;;18.50;99.90;;;;;;4959773;28;20133;-90
2022/08/17 04:29:19;;;;;;;49.78;34.15;;;18.50;99.90;;;;;;4976948;28;20041;-91
2022/08/17 04:31:44;;;;;;;47.90;34.13;;;18.50;99.90;;;;;;4976869;28;20057;-91
2022/08/17 04:34:11;;;;;;;49.35;34.15;;;18.50;99.90;;;;;;4959217;28;20047;-91
2022/08/17 04:36:37;;;;;;;50.78;35.70;;;18.40;99.90;;;;;;4976529;28;20051;-90
2022/08/17 04:39:03;;;;;;;50.15;33.80;;;18.80;99.90;;;;;;4958617;28;20402;-91
2022/08/17 04:44:12;;;;;;;;;;;18.50;99.90;;;;;;4977393;28;20054;-91
2022/08/17 04:46:38;;;;;;;47.35;32.90;;;18.40;99.90;;;;;;4958186;28;19932;-90
2022/08/17 04:49:07;;;;;;;55.05;34.53;;;18.40;99.90;;;;;;4958870;28;20047;-91
2022/08/17 04:51:37;;;;;;;49.95;33.58;;;18.40;99.90;;;;;;4959084;28;20058;-89
2022/08/17 04:54:09;;;;;;;51.30;34.95;;;18.40;99.90;;;;;;4962307;28;20046;-90
2022/08/17 04:56:35;;;;;;;48.25;32.10;;;18.40;99.90;;;;;;4959200;28;20411;-91
2022/08/17 04:59:05;;;;;;;50.50;33.33;;;18.40;99.90;;;;;;4978471;28;20047;-90
2022/08/17 05:01:34;;;;;;;49.28;33.15;;;18.70;99.90;;;;;;4978191;28;20447;-89
2022/08/17 05:04:04;;;;;;;48.28;34.40;;;18.50;99.90;;;;;;4981691;28;20077;-90
2022/08/17 05:06:29;;;;;;;49.30;33.13;;;18.50;99.90;;;;;;4960289;28;20129;-89
2022/08/17 05:08:56;;;;;;;51.20;34.25;;;18.40;99.90;;;;;;4958725;28;20185;-90
2022/08/17 05:11:24;;;;;;;50.90;32.25;;;18.50;99.90;;;;;;4975585;28;20517;-90
2022/08/17 05:13:50;;;;;;;49.05;32.30;;;18.50;99.90;;;;;;4958236;28;20133;-90
2022/08/17 05:16:16;;;;;;;47.35;32.92;;;18.50;99.90;;;;;;4958626;28;20133;-90
2022/08/17 05:18:42;;;;;;;46.22;31.95;;;18.50;99.90;;;;;;4959770;28;20057;-90
2022/08/17 05:21:08;;;;;;;51.17;33.15;;;19.00;99.90;;;;;;4976524;28;20034;-90
2022/08/17 05:23:34;;;;;;;48.08;33.38;;;18.50;99.90;;;;;;4958463;28;20487;-90
2022/08/17 05:26:00;;;;;;;52.95;32.40;;;18.70;99.90;;;;;;4976395;28;20047;-89
2022/08/17 05:28:26;;;;;;;49.95;31.45;;;18.60;99.90;;;;;;4971602;28;20058;-90
2022/08/17 05:30:54;;;;;;;53.05;33.72;;;18.60;99.90;;;;;;4966166;28;20093;-87
2022/08/17 05:33:27;;;;;;;51.00;33.45;;;18.50;99.90;;;;;;4957457;28;20490;-86
2022/08/17 05:35:54;;;;;;;50.53;32.80;;;18.50;99.90;;;;;;4954514;28;20039;-85
2022/08/17 05:38:22;;;;;;;52.20;32.88;;;18.50;99.90;;;;;;4937731;29;20053;-85
2022/08/17 05:40:47;;;;;;;51.30;33.28;;;18.80;99.90;;;;;;4955843;29;20047;-87
2022/08/17 05:43:34;;;;;;;46.25;31.73;;;18.50;99.90;;;;;;4937864;29;20105;-87
2022/08/17 05:46:26;;;;;;;52.50;33.40;;;18.60;99.90;;;;;;4938285;29;20399;-83
2022/08/17 05:48:57;;;;;;;54.30;33.92;;;18.50;99.90;;;;;;4954713;29;20101;-82
2022/08/17 05:51:54;;;;;;;50.13;32.42;;;18.50;99.90;;;;;;4938144;29;20051;-82
2022/08/17 05:54:38;;;;;;;48.28;32.85;;;18.50;99.90;;;;;;4938094;29;20044;-84
2022/08/17 05:57:40;;;;;;;50.40;33.38;;;18.50;99.90;;;;;;4938072;29;20057;-89
2022/08/17 06:00:22;;;;;;;45.75;31.13;;;19.00;99.90;;;;;;4930258;29;20044;-80
2022/08/17 06:03:15;;;;;;;46.75;31.88;;;18.60;99.90;;;;;;4969166;28;20066;-80
2022/08/17 06:05:52;;;;;;;47.80;32.08;;;18.70;99.90;;;;;;4974030;28;20057;-80
2022/08/17 06:08:44;;;;;;;48.40;31.90;;;18.70;99.90;;;;;;4956367;28;20047;-78
2022/08/17 06:11:44;;;;;;;45.30;32.00;;;18.80;99.90;;;;;;4934671;29;20047;-80
2022/08/17 06:14:30;;;;;;;46.58;32.33;;;18.80;99.90;;;;;;4918407;29;20568;-80
2022/08/17 06:17:08;;;;;;;47.25;32.13;;;18.90;99.90;;;;;;4918103;29;20052;-80
2022/08/17 06:19:45;;;;;;;48.47;32.10;;;18.90;99.90;;;;;;4918127;29;20087;-80
2022/08/17 06:22:15;;;;;;;46.38;31.20;;;19.00;99.90;;;;;;4953639;29;20052;-80
2022/08/17 06:24:56;;;;;;;43.85;29.60;;;18.90;99.90;;;;;;4936919;29;20055;-80
2022/08/17 06:27:31;;;;;;;43.58;30.58;;;19.10;99.90;;;;;;4937484;29;20051;-80
2022/08/17 06:30:08;;;;;;;45.20;31.17;;;19.10;99.90;;;;;;4954831;29;20051;-81
2022/08/17 06:32:36;;;;;;;44.75;30.73;;;19.10;99.90;;;;;;4934192;29;20165;-80
2022/08/17 06:35:07;;;;;;;42.35;29.90;;;19.10;99.90;;;;;;4937341;29;20059;-81
2022/08/17 06:37:50;;;;;;;41.30;29.65;;;19.10;99.90;;;;;;4936417;29;20043;-80
2022/08/17 06:40:24;;;;;;;41.90;29.85;;;19.10;99.90;;;;;;4954829;29;20047;-82
2022/08/17 06:43:11;;;;;;;42.35;29.42;;;19.10;99.90;;;;;;4937869;29;20051;-83
2022/08/17 06:45:51;;;;;;;41.00;27.63;;;19.20;99.90;;;;;;4920574;29;20055;-81
2022/08/17 06:48:31;;;;;;;38.20;27.95;;;19.20;99.90;;;;;;4937037;29;20043;-82
2022/08/17 06:51:02;;;;;;;40.75;28.33;;;19.20;99.90;;;;;;4969648;28;20055;-83
2022/08/17 06:53:41;;;;;;;39.50;27.65;;;19.30;99.90;;;;;;4936586;29;20130;-81
2022/08/17 06:56:08;;;;;;;38.72;27.35;;;19.40;99.90;;;;;;4937319;29;20047;-81
2022/08/17 06:58:36;;;;;;;43.40;27.45;;;19.50;99.90;;;;;;4936967;29;20061;-81
2022/08/17 07:01:13;;;;;;;38.25;27.35;;;19.60;99.90;;;;;;4936408;29;20413;-80
2022/08/17 07:03:54;;;;;;;39.50;28.88;;;19.70;99.90;;;;;;4936566;29;20047;-80
2022/08/17 07:06:23;;;;;;;38.50;27.10;;;19.80;99.90;;;;;;4936338;29;20047;-81
2022/08/17 07:08:54;;;;;;;37.63;26.13;;;20.00;99.90;;;;;;4954228;29;20055;-82
2022/08/17 07:11:30;;;;;;;40.13;27.65;;;20.10;99.90;;;;;;4953356;29;20479;-82
2022/08/17 07:14:12;;;;;;;37.08;26.67;;;20.30;99.90;;;;;;4936098;29;20051;-82
2022/08/17 07:16:50;;;;;;;35.92;26.65;;;20.30;99.90;;;;;;4953739;29;20510;-81
2022/08/17 07:19:21;;;;;;;35.38;25.77;;;20.50;99.90;;;;;;4936740;29;20409;-81
2022/08/17 07:22:01;;;;;;;35.95;26.23;;;20.60;99.90;;;;;;4953907;29;20130;-81
2022/08/17 07:24:43;;;;;;;34.38;26.30;;;20.70;99.90;;;;;;4954316;29;20044;-82
2022/08/17 07:27:11;;;;;;;35.25;26.05;;;21.00;99.90;;;;;;4953337;29;20048;-81
2022/08/17 07:29:45;;;;;;;35.10;25.80;;;21.00;99.90;;;;;;4936599;29;20055;-81
2022/08/17 07:32:13;;;;;;;34.25;25.67;;;21.20;99.90;;;;;;4951767;29;20082;-82
2022/08/17 07:34:58;;;;;;;31.58;24.42;;;21.30;99.90;;;;;;4949757;28;20090;-82
2022/08/17 07:37:24;;;;;;;32.20;23.92;;;21.40;99.90;;;;;;4972211;28;20050;-82
2022/08/17 07:39:50;;;;;;;28.95;23.15;;;21.60;99.90;;;;;;4955497;28;20117;-80
2022/08/17 07:42:15;;;;;;;32.20;23.27;;;21.70;99.90;;;;;;4954582;28;20127;-82
2022/08/17 07:44:51;;;;;;;29.67;23.75;;;21.80;99.90;;;;;;4935349;29;20086;-80
2022/08/17 07:50:02;;;;;;;30.45;22.73;;;22.30;99.90;;;;;;4955570;29;20505;-82
2022/08/17 07:52:31;;;;;;;28.90;22.05;;;22.50;99.90;;;;;;4955821;28;20051;-82
2022/08/17 07:54:57;;;;;;;28.00;21.92;;;22.60;99.90;;;;;;4956797;29;20082;-82
2022/08/17 07:57:31;;;;;;;27.98;22.13;;;22.70;99.90;;;;;;4956713;29;20487;-82
2022/08/17 07:59:59;;;;;;;28.33;22.45;;;22.80;99.90;;;;;;4957157;29;20103;-83
2022/08/17 08:02:33;;;;;;;30.27;22.85;;;22.90;99.90;;;;;;4938761;29;20083;-83
2022/08/17 08:05:04;;;;;;;;;;;23.00;99.90;;;;;;4940800;29;20051;-83
2022/08/17 08:07:48;;;;;;;28.70;22.55;;;23.20;99.90;;;;;;4939613;29;20021;-83
2022/08/17 08:10:31;;;;;;;28.70;22.15;;;23.30;99.90;;;;;;4939186;29;20399;-83
2022/08/17 08:13:08;;;;;;;28.80;19.95;;;23.40;99.90;;;;;;4957145;29;20110;-84
2022/08/17 08:15:41;;;;;;;26.00;21.20;;;23.40;99.90;;;;;;4939714;29;20055;-83
2022/08/17 08:18:26;;;;;;;;;;;23.60;99.90;;;;;;4939340;29;20052;-83
2022/08/17 08:21:08;;;;;;;27.65;21.02;;;23.80;99.90;;;;;;4920910;29;19941;-81
2022/08/17 08:23:42;;;;;;;25.10;20.92;;;23.80;99.90;;;;;;4919913;29;20055;-81
2022/08/17 08:26:12;;;;;;;25.77;19.80;;;23.80;99.90;;;;;;4937747;29;20047;-83
2022/08/17 08:28:53;;;;;;;27.83;19.95;;;23.80;99.90;;;;;;4920209;29;20060;-83
2022/08/17 08:31:37;;;;;;;25.65;20.25;;;23.80;99.90;;;;;;4936705;29;20387;-83
2022/08/17 08:34:35;;;;;;;25.92;20.25;;;23.90;99.90;;;;;;4937618;29;20454;-83
2022/08/17 08:37:20;;;;;;;24.85;18.77;;;23.90;99.90;;;;;;4909526;29;20107;-83
2022/08/17 08:40:11;;;;;;;27.65;20.98;;;24.00;99.90;;;;;;4940506;29;20044;-85
2022/08/17 08:42:51;;;;;;;28.90;21.95;;;23.90;99.90;;;;;;4921008;29;20480;-83
2022/08/17 08:45:42;;;;;;;28.05;22.40;;;23.70;99.90;;;;;;4936537;29;20047;-83
2022/08/17 08:48:24;;;;;;;26.48;21.05;;;23.60;99.90;;;;;;4910046;29;20095;-83
2022/08/17 08:51:15;;;;;;;28.70;21.83;;;23.40;99.90;;;;;;4917017;29;20058;-83
2022/08/17 08:53:47;;;;;;;27.13;21.40;;;23.30;99.90;;;;;;4946334;29;20083;-84
2022/08/17 08:56:28;;;;;;;27.85;20.65;;;23.20;99.90;;;;;;4937414;29;20052;-82
2022/08/17 08:59:34;;;;;;;26.25;20.45;;;23.20;99.90;;;;;;4919503;29;20036;-83
2022/08/17 09:02:14;;;;;;;26.15;19.75;;;23.10;99.90;;;;;;4919942;29;20055;-83
2022/08/17 09:04:46;;;;;;;25.88;18.50;;;23.10;99.90;;;;;;4920067;29;20055;-83
2022/08/17 09:07:49;;;;;;;24.23;18.17;;;23.20;99.90;;;;;;4936460;29;20051;-83
2022/08/17 09:10:57;;;;;;;25.35;19.02;;;23.30;99.90;;;;;;4936864;29;20052;-83
2022/08/17 09:13:53;;;;;;;26.65;19.88;;;23.30;99.90;;;;;;4918610;29;20055;-83
2022/08/17 09:16:44;;;;;;;23.13;18.15;;;23.30;99.90;;;;;;4936765;29;20079;-83
2022/08/17 09:19:49;;;;;;;26.40;20.27;;;23.30;99.90;;;;;;4919489;29;20059;-83
2022/08/17 09:22:41;;;;;;;25.95;20.27;;;23.30;99.90;;;;;;4930293;29;20060;-84
2022/08/17 09:25:14;;;;;;;30.23;22.13;;;23.30;99.90;;;;;;4936718;29;20090;-83
2022/08/17 09:27:56;;;;;;;28.48;21.85;;;23.20;99.90;;;;;;4936110;29;20048;-83
2022/08/17 09:30:22;;;;;;;27.13;20.40;;;23.20;99.90;;;;;;4919307;29;20044;-83
2022/08/17 09:33:01;;;;;;;27.80;20.38;;;23.20;99.90;;;;;;4919183;29;20044;-83
2022/08/17 09:35:36;;;;;;;25.08;20.88;;;23.20;99.90;;;;;;4918446;29;20090;-82
2022/08/17 09:38:40;;;;;;;26.13;20.77;;;23.20;99.90;;;;;;4936541;29;20407;-82
2022/08/17 09:41:06;;;;;;;;;;;23.30;99.90;;;;;;4914635;29;20103;-82
2022/08/17 09:43:42;;;;;;;26.27;20.25;;;23.50;99.90;;;;;;4931462;29;20290;-83
2022/08/17 09:46:33;;;;;;;23.65;18.77;;;23.70;99.90;;;;;;4919005;29;20054;-82
2022/08/17 09:49:08;;;;;;;24.77;18.50;;;23.90;99.90;;;;;;4918202;29;20091;-82
2022/08/17 09:51:57;;;;;;;23.02;19.40;;;24.10;99.90;;;;;;4919075;29;20064;-82
2022/08/17 09:54:29;;;;;;;22.90;17.95;;;24.20;99.90;;;;;;4935715;29;20538;-82
2022/08/17 09:57:44;;;;;;;21.23;17.33;;;24.40;99.90;;;;;;4919154;29;20051;-82
2022/08/17 10:00:23;;;;;;;20.90;16.38;;;24.50;99.90;;;;;;4916724;29;20091;-82
2022/08/17 10:02:53;;;;;;;21.70;15.30;;;24.80;99.90;;;;;;4918154;29;20042;-82
2022/08/17 10:05:27;;;;;;;20.52;16.13;;;25.10;99.90;;;;;;4935663;29;20058;-86
2022/08/17 10:08:07;;;;;;;20.95;16.50;;;25.20;99.90;;;;;;4936206;29;20130;-87
2022/08/17 10:11:04;;;;;;;19.58;16.02;;;25.20;99.90;;;;;;4935096;29;20200;-83
2022/08/17 10:13:36;;;;;;;19.60;15.07;;;25.40;99.90;;;;;;4934936;29;20048;-83
2022/08/17 10:16:06;;;;;;;18.35;15.23;;;25.50;99.90;;;;;;4929938;29;20054;-83
2022/08/17 10:18:48;;;;;;;20.30;15.50;;;25.50;99.90;;;;;;4937871;29;20051;-82
2022/08/17 10:27:13;;;;;;;20.50;16.83;;;25.30;99.90;;;;;;4937584;29;20515;-80
2022/08/17 10:29:52;;;;;;;20.27;16.42;;;25.10;99.90;;;;;;4954051;29;20450;-83
2022/08/17 10:32:55;;;;;;;20.50;16.02;;;25.00;99.90;;;;;;4936430;29;20054;-83
2022/08/17 10:35:39;;;;;;;20.00;16.77;;;25.00;99.90;;;;;;4936359;29;20039;-83
2022/08/17 10:38:18;;;;;;;20.90;17.13;;;25.00;99.90;;;;;;4936870;29;20178;-84
2022/08/17 10:40:48;;;;;;;20.70;16.38;;;24.90;99.90;;;;;;4936888;29;20051;-83
2022/08/17 10:43:47;;;;;;;20.30;15.95;;;24.90;99.90;;;;;;4937382;29;20043;-83
2022/08/17 10:46:41;;;;;;;19.30;15.25;;;24.90;99.90;;;;;;4937506;29;20391;-83
2022/08/17 10:49:16;;;;;;;21.13;17.02;;;25.00;99.90;;;;;;4935590;29;20813;-82
2022/08/17 10:51:44;;;;;;;21.63;16.85;;;25.10;99.90;;;;;;4936455;29;20055;-84
2022/08/17 10:54:32;;;;;;;21.75;17.20;;;25.20;99.90;;;;;;4937328;29;20050;-83
2022/08/17 10:56:57;;;;;;;22.08;17.65;;;25.30;99.90;;;;;;4937270;29;20078;-82
2022/08/17 10:59:35;;;;;;;22.70;17.60;;;25.40;99.90;;;;;;4952983;29;20091;-84
2022/08/17 11:02:13;;;;;;;23.23;18.98;;;26.00;99.90;;;;;;4937413;29;20047;-87
2022/08/17 11:05:14;;;;;;;25.20;18.42;;;25.90;99.90;;;;;;4938194;29;20043;-84
2022/08/17 11:08:04;;;;;;;25.55;19.75;;;26.30;99.90;;;;;;4948620;28;20047;-83
2022/08/17 11:10:51;;;;;;;22.38;17.65;;;26.40;99.90;;;;;;4951429;29;20051;-83
2022/08/17 11:13:38;;;;;;;26.75;20.17;;;26.40;99.90;;;;;;4934311;29;20067;-82
2022/08/17 11:16:25;;;;;;;25.30;19.45;;;26.40;99.90;;;;;;4953328;29;20395;-83
2022/08/17 11:19:29;;;;;;;25.63;18.98;;;26.60;99.90;;;;;;4926362;29;20052;-81
2022/08/17 11:21:57;;;;;;;29.20;21.42;;;26.40;99.90;;;;;;4930072;29;20035;-83
2022/08/17 11:24:39;;;;;;;25.15;19.73;;;26.20;99.90;;;;;;4938504;29;20055;-83
2022/08/17 11:27:19;;;;;;;26.38;21.02;;;26.00;99.90;;;;;;4940367;29;20516;-84
2022/08/17 11:30:13;;;;;;;28.23;22.08;;;25.90;99.90;;;;;;4940265;29;20047;-84
2022/08/17 11:32:50;;;;;;;27.88;22.52;;;25.70;99.90;;;;;;4938837;29;20050;-84
2022/08/17 11:35:22;;;;;;;30.30;22.95;;;25.60;99.90;;;;;;4939040;29;20126;-82
2022/08/17 11:37:47;;;;;;;28.85;22.73;;;25.40;99.90;;;;;;4940173;29;20046;-86
2022/08/17 11:40:40;;;;;;;30.13;22.80;;;25.30;99.90;;;;;;4939137;29;20039;-83
2022/08/17 11:43:45;;;;;;;29.60;21.63;;;25.40;99.90;;;;;;4955869;29;20078;-83
2022/08/17 11:46:17;;;;;;;31.00;23.67;;;25.30;99.90;;;;;;4907692;29;20066;-84
2022/08/17 11:51:53;;;;;;;29.98;22.77;;;25.30;99.90;;;;;;4955482;29;20043;-83
2022/08/17 11:54:40;;;;;;;28.42;22.10;;;25.30;99.90;;;;;;4938836;29;20042;-83
2022/08/17 11:57:24;;;;;;;32.35;24.80;;;25.40;99.90;;;;;;4937218;29;20494;-83
2022/08/17 12:00:09;;;;;;;35.13;26.58;;;25.20;99.90;;;;;;4956333;29;20054;-84
2022/08/17 12:02:41;;;;;;;33.95;25.23;;;25.10;99.90;;;;;;4938567;29;20039;-82
2022/08/17 12:05:16;;;;;;;31.98;24.85;;;24.90;99.90;;;;;;4957026;29;20463;-81
2022/08/17 12:08:10;;;;;;;33.20;25.13;;;24.90;99.90;;;;;;4954967;29;20130;-87
2022/08/17 12:10:53;;;;;;;34.88;25.42;;;24.80;99.90;;;;;;4939646;29;20062;-84
2022/08/17 12:13:20;;;;;;;34.97;26.58;;;24.80;99.90;;;;;;4939651;28;20517;-87
2022/08/17 12:15:49;;;;;;;37.15;25.83;;;24.80;99.90;;;;;;4939410;29;20063;-87
2022/08/17 12:18:34;;;;;;;33.95;26.52;;;24.70;99.90;;;;;;4956232;29;20071;-86
2022/08/17 12:21:22;;;;;;;33.45;25.83;;;24.70;99.90;;;;;;4939709;29;20490;-84
2022/08/17 12:23:47;;;;;;;34.70;25.70;;;24.70;99.90;;;;;;4938497;29;20093;-87
2022/08/17 12:26:19;;;;;;;32.97;24.50;;;24.80;99.90;;;;;;4955364;29;20126;-86
2022/08/17 12:28:54;;;;;;;32.40;25.42;;;25.10;99.90;;;;;;4956597;29;20047;-87
2022/08/17 12:31:43;;;;;;;32.80;25.48;;;25.00;99.90;;;;;;4935787;29;20063;-83
2022/08/17 12:34:22;;;;;;;33.38;25.75;;;24.90;99.90;;;;;;4963960;28;20038;-87
2022/08/17 12:36:50;;;;;;;33.55;26.17;;;25.00;99.90;;;;;;4957854;28;20386;-85
2022/08/17 12:39:34;;;;;;;35.80;26.98;;;25.20;99.90;;;;;;4957874;28;20229;-86
2022/08/17 12:42:00;;;;;;;36.15;27.52;;;25.00;99.90;;;;;;4957829;28;20137;-85
2022/08/17 12:44:34;;;;;;;37.10;28.73;;;24.70;99.90;;;;;;4957488;28;20047;-86
2022/08/17 12:47:16;;;;;;;39.10;29.30;;;24.90;99.90;;;;;;4965135;28;20057;-87
2022/08/17 12:49:44;;;;;;;39.70;27.95;;;24.90;99.90;;;;;;4993343;28;20031;-88
2022/08/17 12:52:23;;;;;;;41.83;31.25;;;25.00;99.90;;;;;;4977025;28;20051;-93
2022/08/17 12:54:52;;;;;;;45.10;31.70;;;24.90;99.90;;;;;;4976334;28;20051;-84
2022/08/17 12:57:28;;;;;;;44.25;34.42;;;24.90;99.90;;;;;;4958982;28;20093;-86
2022/08/17 13:00:16;;;;;;;42.97;32.25;;;24.80;99.90;;;;;;4959227;28;20050;-95
2022/08/17 13:02:58;;;;;;;41.58;33.30;;;24.70;99.90;;;;;;4946043;28;20050;-85
2022/08/17 13:05:32;;;;;;;49.00;35.60;;;24.60;99.90;;;;;;4957057;28;20038;-85
2022/08/17 13:07:59;;;;;;;45.55;34.33;;;24.60;99.90;;;;;;4962675;28;20516;-90
2022/08/17 13:10:29;;;;;;;47.75;35.00;;;24.50;99.90;;;;;;4958084;28;20047;-87
2022/08/17 13:13:03;;;;;;;45.33;34.60;;;24.50;99.90;;;;;;4975414;28;20093;-94
2022/08/17 13:15:40;;;;;;;45.63;33.90;;;24.60;99.90;;;;;;4946845;28;20384;-83
2022/08/17 13:18:26;;;;;;;46.88;35.25;;;24.60;99.90;;;;;;4939021;29;20138;-86
2022/08/17 13:20:56;;;;;;;51.42;35.97;;;24.60;99.90;;;;;;4938567;29;20051;-84
2022/08/17 13:23:23;;;;;;;50.90;35.65;;;24.50;99.90;;;;;;4938256;29;20050;-84
2022/08/17 13:26:01;;;;;;;47.58;35.10;;;24.50;99.90;;;;;;4937631;29;20138;-82
2022/08/17 13:28:28;;;;;;;47.78;35.17;;;24.30;99.90;;;;;;4956419;29;20094;-86
2022/08/17 13:31:28;;;;;;;50.03;35.80;;;24.60;99.90;;;;;;4939131;29;20043;-85